Latest Weather Observations for Low Isles

IDQ60801

Issued at 6:32 pm EST Saturday 1 October 2016 (issued every 30 minutes, with the page automatically refreshed every 10 minutes)

About weather observations | Map of weather stations | Latest weather observations for QLD | Other Formats
Station Details ID: 031037 Name: LOW ISLES LIGHTHOUSE Lat: -16.38 Lon: 145.56 Height: 2.9 m
Data from the previous 72 hours. | See also: Recent months at Low Isles
Date/Time
EST
Temp
°C
App
Temp
°C
Dew
Point
°C
Rel
Hum
%
Delta-T
°C
Wind Press
QNH
hPa
Press
MSL
hPa
Rain since
9am
mm
Dir  Spd
km/h
Gust
km/h
Spd
kts
Gust
kts
01/06:30pm 26.5 28.4 22.8 80 2.5 NNE 17 19 9 10 1011.8 - 2.6
01/06:00pm 26.8 29.0 22.6 78 2.8 NNE 15 20 8 11 1011.9 1011.8 2.6
01/05:30pm 27.4 29.3 22.1 73 3.6 NNE 15 17 8 9 1011.7 - 2.6
01/05:00pm 28.3 30.3 22.3 70 4.1 NNE 15 17 8 9 1011.7 - 2.6
01/04:30pm 28.3 30.5 21.8 68 4.4 NNE 13 17 7 9 1011.4 - 2.6
01/04:00pm 30.1 33.0 22.5 63 5.2 NNE 11 13 6 7 1011.5 - 2.6
01/03:30pm 30.8 33.6 23.7 66 4.9 NNE 15 17 8 9 1011.5 - 2.6
01/03:00pm 30.1 33.5 24.0 70 4.2 ENE 13 17 7 9 1011.5 1011.4 2.6
01/02:30pm 28.3 31.7 24.1 78 2.9 ESE 13 19 7 10 1011.8 - 2.6
01/02:00pm 27.8 32.3 24.0 80 2.6 E 7 9 4 5 1012.3 - 2.6
01/01:30pm 27.1 29.2 23.8 82 2.3 SSE 19 22 10 12 1012.5 - 2.6
01/01:00pm 26.9 30.0 24.2 85 1.9 SSE 15 19 8 10 1012.7 - 2.6
01/12:30pm 26.0 28.4 23.7 87 1.6 SSE 17 19 9 10 1013.0 - 2.6
01/12:00pm 25.6 28.5 23.8 90 1.2 SSE 15 17 8 9 1013.5 1013.4 2.6
01/11:30am 25.8 29.0 23.7 88 1.4 ESE 13 17 7 9 1013.9 - 2.2
01/11:00am 25.8 29.6 23.5 87 1.6 SE 9 11 5 6 1014.1 - 2.2
01/10:30am 26.9 30.0 22.9 79 2.7 ESE 11 15 6 8 1014.2 - 0.0
01/10:00am 26.9 30.2 23.2 80 2.5 E 11 15 6 8 1014.3 - 0.0
01/09:30am 27.1 29.7 23.3 80 2.6 ESE 15 19 8 10 1014.2 - 0.0
01/09:00am 26.8 30.0 23.7 83 2.1 ESE 13 17 7 9 1014.4 1014.3 1.6
01/08:30am 26.2 29.2 23.3 84 2.0 ESE 13 19 7 10 1014.3 - 1.6
01/08:00am 25.8 28.9 23.5 87 1.6 ESE 13 17 7 9 1014.0 - 1.6
01/07:30am 25.4 28.4 23.3 88 1.4 ESE 13 15 7 8 1013.6 - 1.6
01/07:00am 25.3 28.3 23.4 89 1.3 ESE 13 17 7 9 1013.1 - 1.6
01/06:30am 25.1 27.3 23.2 89 1.3 ESE 17 20 9 11 1012.6 - 1.6
01/06:00am 25.1 28.4 23.2 89 1.3 ESE 11 13 6 7 1012.0 1011.9 1.6
01/05:30am 25.3 29.4 23.0 87 1.6 SW 6 7 3 4 1011.7 - 1.6
01/05:00am 25.4 29.1 23.3 88 1.4 SW 9 9 5 5 1011.5 - 1.6
01/04:30am 25.0 28.9 22.9 88 1.4 SSW 7 9 4 5 1011.2 - 1.6
01/04:00am 25.0 28.9 22.9 88 1.4 W 7 9 4 5 1011.0 - 1.6
01/03:30am 24.7 28.2 22.8 89 1.3 W 9 11 5 6 1010.7 - 1.6
01/03:00am 24.3 27.5 22.4 89 1.3 WNW 9 13 5 7 1010.8 1010.7 1.6
01/02:30am 24.3 27.6 22.6 90 1.1 NW 9 13 5 7 1010.8 - 1.6
01/02:00am 24.8 28.1 23.2 91 1.1 N 11 17 6 9 1010.7 - 1.6
01/01:30am 24.9 26.7 23.3 91 1.1 NW 19 22 10 12 1010.9 - 0.8
01/01:00am 25.0 26.8 23.6 92 1.0 NW 20 24 11 13 1011.1 - 0.8
01/12:30am 25.4 26.6 23.8 91 1.1 NW 24 28 13 15 1011.3 - 0.6
01/12:00am 25.6 26.7 23.6 89 1.4 NW 24 28 13 15 1011.5 1011.4 0.4
 
Date/Time
EST
Temp
°C
App
Temp
°C
Dew
Point
°C
Rel
Hum
%
Delta-T
°C
Wind Press
QNH
hPa
Press
MSL
hPa
Rain since
9am
mm
Dir  Spd
km/h
Gust
km/h
Spd
kts
Gust
kts
30/11:30pm 26.3 29.2 23.8 86 1.7 N 15 17 8 9 1011.5 - 0.2
30/11:00pm 26.3 28.2 23.8 86 1.7 N 20 22 11 12 1011.3 - 0.0
30/10:30pm 26.4 30.0 23.7 85 1.9 N 11 13 6 7 1011.6 - 0.0
30/10:00pm 26.6 30.2 23.7 84 2.0 N 11 15 6 8 1011.3 - 0.0
30/09:30pm 26.5 29.6 23.6 84 2.0 NW 13 13 7 7 1011.3 - 0.0
30/09:00pm 26.8 29.0 23.9 84 2.0 N 19 20 10 11 1010.9 1010.8 0.0
30/08:30pm 26.8 29.6 23.7 83 2.1 N 15 19 8 10 1010.3 - 0.0
30/08:00pm 26.5 27.7 23.2 82 2.2 N 22 26 12 14 1010.1 - 0.0
30/07:30pm 26.7 28.6 23.8 84 2.0 N 20 20 11 11 1009.6 - 0.0
30/07:00pm 26.5 29.4 23.2 82 2.2 N 13 15 7 8 1008.9 - 0.0
30/06:30pm 26.7 28.7 23.6 83 2.1 N 19 22 10 12 1008.6 - 0.0
30/06:00pm 27.0 28.9 23.7 82 2.3 N 20 22 11 12 1008.5 1008.4 0.0
30/05:30pm 27.1 27.4 23.6 81 2.4 N 28 33 15 18 1008.6 - 0.0
30/05:00pm 27.3 27.7 23.1 78 2.9 N 26 30 14 16 1008.2 - 0.0
30/04:30pm 27.5 26.6 22.9 76 3.1 N 32 35 17 19 1007.7 - 0.0
30/04:00pm 27.6 26.6 23.0 76 3.1 N 33 37 18 20 1007.6 - 0.0
30/03:30pm 27.6 26.5 22.8 75 3.3 N 33 37 18 20 1007.6 - 0.0
30/03:00pm 29.1 27.5 22.6 68 4.4 N 35 39 19 21 1007.9 1007.8 0.0
30/02:30pm 28.1 26.3 22.3 70 3.9 N 35 41 19 22 1007.8 - 0.0
30/02:00pm 28.4 27.3 22.4 70 4.1 N 32 33 17 18 1008.4 - 0.0
30/01:30pm 29.2 28.5 23.2 70 4.1 N 32 35 17 19 1008.6 - 0.0
30/01:00pm 29.3 28.0 21.3 62 5.3 N 30 32 16 17 1009.1 - 0.0
30/12:30pm 30.5 30.7 22.1 61 5.7 N 24 30 13 16 1009.8 - 0.0
30/12:00pm 30.8 31.8 22.1 59 5.9 N 20 24 11 13 1010.1 1010.0 0.0
30/11:30am 30.8 31.7 21.6 58 6.2 N 19 20 10 11 1010.5 - 0.0
30/11:00am 31.1 32.9 21.9 58 6.2 N 15 17 8 9 1010.8 - 0.0
30/10:30am 30.9 33.8 22.5 61 5.7 N 11 13 6 7 1011.1 - 0.0
30/10:00am 29.9 33.2 22.6 65 5.0 N 9 11 5 6 1011.2 - 0.0
30/09:30am 28.6 31.9 21.9 67 4.5 N 7 9 4 5 1011.2 - 0.0
30/09:00am 28.0 31.0 22.0 70 4.0 NW 9 11 5 6 1011.3 1011.2 0.0
30/08:30am 27.0 29.4 22.2 75 3.2 NW 13 15 7 8 1011.4 - 0.0
30/08:00am 26.6 27.9 21.6 74 3.3 NW 17 19 9 10 1011.2 - 0.0
30/07:30am 26.2 28.5 22.1 78 2.7 WNW 13 15 7 8 1010.8 - 0.0
30/07:00am 25.8 27.5 21.7 78 2.7 WNW 15 17 8 9 1010.5 - 0.0
30/06:30am 25.5 27.5 21.6 79 2.6 NW 13 15 7 8 1010.1 - 0.0
30/06:00am 25.5 27.4 21.4 78 2.7 WNW 13 15 7 8 1010.0 1009.9 0.0
30/05:30am 25.6 27.7 21.7 79 2.6 W 13 15 7 8 1009.9 - 0.0
30/05:00am 25.5 28.2 21.4 78 2.7 W 9 11 5 6 1009.5 - 0.0
30/04:30am 25.6 27.9 21.3 77 2.8 WNW 11 13 6 7 1009.4 - 0.0
30/04:00am 25.7 27.9 21.8 79 2.6 WNW 13 15 7 8 1009.4 - 0.0
30/03:30am 25.9 27.3 21.8 78 2.7 WNW 17 19 9 10 1009.5 - 0.0
30/03:00am 26.0 27.6 22.1 79 2.6 WNW 17 19 9 10 1009.4 1009.3 0.0
30/02:30am 26.2 27.4 22.5 80 2.5 NNW 20 26 11 14 1009.5 - 0.0
30/02:00am 26.2 27.1 22.7 81 2.4 N 22 28 12 15 1009.6 - 0.0
30/01:30am 26.2 27.2 22.9 82 2.2 N 22 24 12 13 1009.7 - 0.0
30/01:00am 26.2 28.1 22.1 78 2.7 NNW 15 19 8 10 1010.1 - 0.0
30/12:30am 26.3 28.3 22.2 78 2.8 NNW 15 17 8 9 1010.3 - 0.0
30/12:00am 26.6 27.8 22.2 77 3.0 NW 19 24 10 13 1010.7 1010.6 0.0
 
Date/Time
EST
Temp
°C
App
Temp
°C
Dew
Point
°C
Rel
Hum
%
Delta-T
°C
Wind Press
QNH
hPa
Press
MSL
hPa
Rain since
9am
mm
Dir  Spd
km/h
Gust
km/h
Spd
kts
Gust
kts
29/11:30pm 26.6 25.5 22.4 78 2.8 N 32 35 17 19 1010.8 - 0.0
29/11:00pm 26.7 25.9 22.3 77 3.0 N 30 37 16 20 1010.9 - 0.0
29/10:30pm 26.8 26.3 22.8 79 2.7 N 30 37 16 20 1010.7 - 0.0
29/10:00pm 26.9 26.6 22.5 77 3.0 N 28 33 15 18 1010.6 - 0.0
29/09:30pm 26.7 25.5 22.3 77 3.0 N 32 35 17 19 1010.5 - 0.0
29/09:00pm 26.9 26.2 22.5 77 3.0 N 30 35 16 19 1010.3 1010.2 0.0
29/08:30pm 26.7 25.3 22.3 77 3.0 N 33 37 18 20 1009.8 - 0.0
29/08:00pm 26.6 25.3 22.4 78 2.8 N 33 37 18 20 1009.3 - 0.0
29/07:30pm 26.4 24.9 22.0 77 2.9 N 33 37 18 20 1008.9 - 0.0
29/07:00pm 26.6 25.4 22.2 77 3.0 N 32 35 17 19 1008.5 - 0.0
29/06:30pm 26.6 25.1 21.8 75 3.2 N 32 37 17 20 1008.3 - 0.0
29/06:00pm 26.8 25.9 22.2 76 3.1 N 30 35 16 19 1008.1 1008.0 0.0
29/05:30pm 26.9 25.7 21.6 72 3.5 N 30 33 16 18 1007.9 - 0.0
29/05:00pm 27.6 26.3 22.1 72 3.7 N 32 35 17 19 1007.5 - 0.0
29/04:30pm 28.1 27.1 21.9 69 4.2 N 30 33 16 18 1007.3 - 0.0
29/04:00pm 28.7 27.6 21.7 66 4.7 N 30 35 16 19 1007.4 - 0.0
29/03:30pm 29.3 28.2 21.8 64 5.0 N 30 35 16 19 1007.4 - 0.0
29/03:00pm 30.1 29.0 21.7 60 5.7 NNE 30 35 16 19 1007.6 1007.5 0.0
29/02:30pm 31.1 30.3 22.4 60 5.9 NNE 30 35 16 19 1007.8 - 0.0
29/02:00pm 31.4 31.1 21.8 56 6.5 NNE 26 30 14 16 1008.3 - 0.0
29/01:30pm 32.1 32.5 22.5 57 6.6 NNE 24 28 13 15 1008.8 - 0.0
29/01:00pm 32.0 33.3 22.7 58 6.4 NE 20 24 11 13 1009.4 - 0.0
29/12:30pm 32.2 33.5 22.6 57 6.6 NNE 20 24 11 13 1010.0 - 0.0
29/12:00pm 30.9 31.8 21.9 58 6.1 NNE 20 26 11 14 1010.5 1010.4 0.0
29/11:30am 30.4 31.4 21.8 60 5.8 NNE 19 20 10 11 1011.0 - 0.0
29/11:00am 29.6 30.4 21.8 63 5.3 N 20 24 11 13 1011.3 - 0.0
29/10:30am 29.3 30.2 21.5 63 5.2 N 19 22 10 12 1011.4 - 0.0
29/10:00am 28.3 30.5 21.8 68 4.4 N 13 17 7 9 1011.6 - 0.0
29/09:30am 28.2 31.1 21.7 68 4.4 NNW 9 13 5 7 1012.0 - 0.0
29/09:00am 27.6 30.9 22.5 74 3.5 WNW 9 13 5 7 1012.1 1012.0 0.0
29/08:30am 26.1 28.7 22.6 81 2.4 W 13 15 7 8 1012.0 - 0.0
29/08:00am 25.3 26.9 22.2 83 2.1 WNW 17 19 9 10 1011.7 - 0.0
29/07:30am 25.3 26.6 22.4 84 1.9 WNW 19 20 10 11 1011.4 - 0.0
29/07:00am 25.1 27.1 22.2 84 1.9 NW 15 17 8 9 1011.0 - 0.0
29/06:30am 25.0 27.4 22.3 85 1.8 NW 13 17 7 9 1010.7 - 0.0
29/06:00am 25.0 27.4 22.3 85 1.8 NW 13 15 7 8 1010.6 1010.5 0.0
29/05:30am 25.2 28.1 22.5 85 1.8 WNW 11 15 6 8 1010.5 - 0.0
29/05:00am 25.1 28.0 21.8 82 2.2 WNW 9 11 5 6 1010.3 - 0.0
29/04:30am 25.3 28.0 22.2 83 2.1 WNW 11 13 6 7 1010.0 - 0.0
29/04:00am 25.4 27.4 22.3 83 2.1 NW 15 17 8 9 1009.7 - 0.0
29/03:30am 25.5 26.9 21.8 80 2.5 NNE 17 20 9 11 1009.8 - 0.0
29/03:00am 25.5 27.5 22.2 82 2.2 N 15 19 8 10 1010.1 1010.0 0.0
29/02:30am 25.2 26.5 21.7 81 2.3 NNE 17 19 9 10 1010.2 - 0.0
29/02:00am 25.3 26.4 21.2 78 2.7 NNE 17 19 9 10 1010.7 - 0.0
29/01:30am 25.6 27.3 21.7 79 2.6 NE 15 17 8 9 1011.0 - 0.0
29/01:00am 25.7 27.6 22.0 80 2.5 NNE 15 17 8 9 1011.5 - 0.0
29/12:30am 25.3 27.3 21.6 80 2.5 NE 13 17 7 9 1012.0 - 0.0
29/12:00am 25.5 27.3 21.8 80 2.5 NE 15 17 8 9 1012.4 1012.3 0.0
 
Date/Time
EST
Temp
°C
App
Temp
°C
Dew
Point
°C
Rel
Hum
%
Delta-T
°C
Wind Press
QNH
hPa
Press
MSL
hPa
Rain since
9am
mm
Dir  Spd
km/h
Gust
km/h
Spd
kts
Gust
kts
28/11:30pm 25.4 27.0 21.5 79 2.6 NE 15 17 8 9 1012.5 - 0.0
28/11:00pm 25.5 27.4 21.4 78 2.7 NE 13 17 7 9 1012.7 - 0.0
28/10:30pm 25.7 27.0 21.6 78 2.7 NE 17 20 9 11 1012.7 - 0.0
28/10:00pm 25.6 26.6 21.7 79 2.6 NE 19 22 10 12 1012.5 - 0.0
28/09:30pm 25.7 26.4 21.6 78 2.7 ENE 20 22 11 12 1012.2 - 0.0
28/09:00pm 25.6 26.6 21.1 76 3.0 ENE 17 22 9 12 1011.8 1011.7 0.0
28/08:30pm 26.0 26.8 21.4 76 3.1 ENE 19 22 10 12 1011.6 - 0.0
28/08:00pm 26.1 27.1 21.7 77 2.9 ENE 19 20 10 11 1011.3 - 0.0
28/07:30pm 26.2 27.5 21.6 76 3.1 ENE 17 20 9 11 1011.2 - 0.0
28/07:00pm 26.3 27.4 21.3 74 3.3 ENE 17 20 9 11 1011.0 - 0.0

Other Formats:

Comma delimited format used in spreadsheet applications
http://www.bom.gov.au/fwo/IDQ60801/IDQ60801.94285.axf

JavaScript Object Notation format (JSON) in row-major order
http://www.bom.gov.au/fwo/IDQ60801/IDQ60801.94285.json